sensor_id;sensor_type;location;lat;lon;timestamp;pressure;altitude;pressure_sealevel;temperature;humidity
37710;BME280;60223;34.854;-92.408;2023-04-21T00:01:58;100386.64;;;26.95;31.95
37710;BME280;60223;34.854;-92.408;2023-04-21T00:04:25;100392.05;;;27.07;31.81
37710;BME280;60223;34.854;-92.408;2023-04-21T00:06:50;100396.89;;;27.38;31.78
37710;BME280;60223;34.854;-92.408;2023-04-21T00:09:16;100417.07;;;27.21;31.99
37710;BME280;60223;34.854;-92.408;2023-04-21T00:11:40;100372.71;;;27.46;31.76
37710;BME280;60223;34.854;-92.408;2023-04-21T00:14:07;100342.04;;;26.97;31.75
37710;BME280;60223;34.854;-92.408;2023-04-21T00:16:33;100333.21;;;27.01;32.01
37710;BME280;60223;34.854;-92.408;2023-04-21T00:18:58;100319.47;;;27.17;31.98
37710;BME280;60223;34.854;-92.408;2023-04-21T00:21:27;100338.99;;;26.82;32.51
37710;BME280;60223;34.854;-92.408;2023-04-21T00:23:47;100344.22;;;27.51;31.71
37710;BME280;60223;34.854;-92.408;2023-04-21T00:26:14;100341.09;;;27.05;31.83
37710;BME280;60223;34.854;-92.408;2023-04-21T00:28:40;100347.78;;;27.06;32.37
37710;BME280;60223;34.854;-92.408;2023-04-21T00:31:06;100335.73;;;26.78;32.78
37710;BME280;60223;34.854;-92.408;2023-04-21T00:33:34;100296.41;;;26.58;33.11
37710;BME280;60223;34.854;-92.408;2023-04-21T00:35:57;100318.42;;;27.35;32.00
37710;BME280;60223;34.854;-92.408;2023-04-21T00:38:22;100322.54;;;27.12;32.24
37710;BME280;60223;34.854;-92.408;2023-04-21T00:40:46;100309.40;;;27.29;31.87
37710;BME280;60223;34.854;-92.408;2023-04-21T00:43:13;100300.57;;;26.57;32.88
37710;BME280;60223;34.854;-92.408;2023-04-21T00:45:38;100303.86;;;27.58;31.79
37710;BME280;60223;34.854;-92.408;2023-04-21T00:48:05;100318.17;;;27.24;31.83
37710;BME280;60223;34.854;-92.408;2023-04-21T00:50:31;100353.02;;;27.87;31.33
37710;BME280;60223;34.854;-92.408;2023-04-21T00:52:55;100352.84;;;27.33;31.71
37710;BME280;60223;34.854;-92.408;2023-04-21T00:55:22;100308.87;;;27.06;31.48
37710;BME280;60223;34.854;-92.408;2023-04-21T00:57:53;100305.53;;;27.31;31.44
37710;BME280;60223;34.854;-92.408;2023-04-21T01:00:10;100320.99;;;27.34;31.15
37710;BME280;60223;34.854;-92.408;2023-04-21T01:02:38;100338.98;;;27.23;31.28
37710;BME280;60223;34.854;-92.408;2023-04-21T01:05:03;100369.80;;;27.50;31.26
37710;BME280;60223;34.854;-92.408;2023-04-21T01:07:28;100377.57;;;27.41;31.30
37710;BME280;60223;34.854;-92.408;2023-04-21T01:09:51;100356.07;;;27.41;31.02
37710;BME280;60223;34.854;-92.408;2023-04-21T01:12:20;100364.47;;;27.65;31.05
37710;BME280;60223;34.854;-92.408;2023-04-21T01:14:45;100361.61;;;27.68;30.96
37710;BME280;60223;34.854;-92.408;2023-04-21T01:17:11;100363.05;;;27.57;31.37
37710;BME280;60223;34.854;-92.408;2023-04-21T01:19:39;100338.87;;;27.49;31.29
37710;BME280;60223;34.854;-92.408;2023-04-21T01:22:02;100316.18;;;27.46;31.27
37710;BME280;60223;34.854;-92.408;2023-04-21T01:24:35;100312.98;;;27.55;31.04
37710;BME280;60223;34.854;-92.408;2023-04-21T01:26:53;100337.51;;;27.62;30.95
37710;BME280;60223;34.854;-92.408;2023-04-21T01:29:19;100351.38;;;27.48;31.04
37710;BME280;60223;34.854;-92.408;2023-04-21T01:31:44;100336.83;;;27.43;31.03
37710;BME280;60223;34.854;-92.408;2023-04-21T01:34:09;100331.03;;;27.44;31.04
37710;BME280;60223;34.854;-92.408;2023-04-21T01:36:34;100328.56;;;27.56;30.96
37710;BME280;60223;34.854;-92.408;2023-04-21T01:39:00;100312.30;;;27.68;30.82
37710;BME280;60223;34.854;-92.408;2023-04-21T01:41:26;100315.62;;;27.48;30.78
37710;BME280;60223;34.854;-92.408;2023-04-21T01:43:51;100311.17;;;27.59;30.83
37710;BME280;60223;34.854;-92.408;2023-04-21T01:46:18;100270.09;;;27.73;30.62
37710;BME280;60223;34.854;-92.408;2023-04-21T01:48:42;100267.29;;;27.62;30.89
37710;BME280;60223;34.854;-92.408;2023-04-21T01:51:08;100267.31;;;27.16;31.01
37710;BME280;60223;34.854;-92.408;2023-04-21T01:53:34;100272.91;;;27.52;30.65
37710;BME280;60223;34.854;-92.408;2023-04-21T01:55:59;100281.11;;;26.72;31.46
37710;BME280;60223;34.854;-92.408;2023-04-21T01:58:24;100266.90;;;26.88;31.43
37710;BME280;60223;34.854;-92.408;2023-04-21T02:00:50;100272.92;;;26.80;31.32
37710;BME280;60223;34.854;-92.408;2023-04-21T02:03:15;100285.79;;;26.84;31.23
37710;BME280;60223;34.854;-92.408;2023-04-21T02:05:42;100272.16;;;27.31;31.06
37710;BME280;60223;34.854;-92.408;2023-04-21T02:08:07;100292.64;;;26.99;31.47
37710;BME280;60223;34.854;-92.408;2023-04-21T02:10:29;100276.72;;;27.42;31.08
37710;BME280;60223;34.854;-92.408;2023-04-21T02:12:58;100253.22;;;27.81;30.47
37710;BME280;60223;34.854;-92.408;2023-04-21T02:15:24;100220.12;;;27.09;31.61
37710;BME280;60223;34.854;-92.408;2023-04-21T02:17:48;100238.66;;;27.01;31.70
37710;BME280;60223;34.854;-92.408;2023-04-21T02:20:14;100245.89;;;27.14;31.26
37710;BME280;60223;34.854;-92.408;2023-04-21T02:22:40;100275.04;;;27.26;31.24
37710;BME280;60223;34.854;-92.408;2023-04-21T02:25:05;100279.20;;;26.78;31.71
37710;BME280;60223;34.854;-92.408;2023-04-21T02:27:31;100266.12;;;27.22;31.16
37710;BME280;60223;34.854;-92.408;2023-04-21T02:29:56;100265.19;;;27.23;30.99
37710;BME280;60223;34.854;-92.408;2023-04-21T02:32:22;100287.81;;;27.02;31.39
37710;BME280;60223;34.854;-92.408;2023-04-21T02:34:48;100330.21;;;27.27;30.92
37710;BME280;60223;34.854;-92.408;2023-04-21T02:37:12;100328.56;;;27.32;30.87
37710;BME280;60223;34.854;-92.408;2023-04-21T02:56:35;100367.43;;;27.49;30.58
37710;BME280;60223;34.854;-92.408;2023-04-21T02:58:59;100352.41;;;27.26;30.93
37710;BME280;60223;34.854;-92.408;2023-04-21T03:01:28;100349.51;;;27.86;30.85
37710;BME280;60223;34.854;-92.408;2023-04-21T03:03:53;100348.52;;;27.50;30.50
37710;BME280;60223;34.854;-92.408;2023-04-21T03:06:20;100335.49;;;27.08;30.77
37710;BME280;60223;34.854;-92.408;2023-04-21T03:08:45;100330.06;;;26.90;31.35
37710;BME280;60223;34.854;-92.408;2023-04-21T03:11:10;100322.49;;;26.87;31.52
37710;BME280;60223;34.854;-92.408;2023-04-21T03:13:36;100331.03;;;26.75;31.60
37710;BME280;60223;34.854;-92.408;2023-04-21T03:16:02;100330.30;;;26.82;31.35
37710;BME280;60223;34.854;-92.408;2023-04-21T03:18:28;100316.83;;;26.99;31.14
37710;BME280;60223;34.854;-92.408;2023-04-21T03:20:57;100321.40;;;27.14;30.97
37710;BME280;60223;34.854;-92.408;2023-04-21T03:23:18;100317.68;;;27.22;30.88
37710;BME280;60223;34.854;-92.408;2023-04-21T03:25:42;100307.37;;;27.59;30.62
37710;BME280;60223;34.854;-92.408;2023-04-21T03:28:06;100307.89;;;27.69;30.58
37710;BME280;60223;34.854;-92.408;2023-04-21T03:30:33;100309.21;;;27.84;30.24
37710;BME280;60223;34.854;-92.408;2023-04-21T03:33:00;100302.03;;;27.57;30.36
37710;BME280;60223;34.854;-92.408;2023-04-21T03:35:26;100308.04;;;27.79;30.22
37710;BME280;60223;34.854;-92.408;2023-04-21T03:37:51;100311.22;;;27.91;30.10
37710;BME280;60223;34.854;-92.408;2023-04-21T03:40:17;100275.59;;;27.75;30.02
37710;BME280;60223;34.854;-92.408;2023-04-21T03:42:43;100267.77;;;27.91;30.08
37710;BME280;60223;34.854;-92.408;2023-04-21T03:45:06;100281.86;;;27.25;30.33
37710;BME280;60223;34.854;-92.408;2023-04-21T03:47:34;100312.65;;;27.33;30.62
37710;BME280;60223;34.854;-92.408;2023-04-21T03:49:59;100319.96;;;27.47;30.40
37710;BME280;60223;34.854;-92.408;2023-04-21T03:52:25;100321.73;;;27.88;29.94
37710;BME280;60223;34.854;-92.408;2023-04-21T03:54:50;100295.21;;;27.40;30.36
37710;BME280;60223;34.854;-92.408;2023-04-21T03:57:16;100291.15;;;27.63;30.37
37710;BME280;60223;34.854;-92.408;2023-04-21T03:59:40;100304.52;;;27.39;30.34
37710;BME280;60223;34.854;-92.408;2023-04-21T04:02:07;100303.20;;;27.24;30.50
37710;BME280;60223;34.854;-92.408;2023-04-21T04:04:32;100298.52;;;27.51;30.25
37710;BME280;60223;34.854;-92.408;2023-04-21T04:06:58;100317.82;;;27.06;30.50
37710;BME280;60223;34.854;-92.408;2023-04-21T04:09:25;100286.09;;;27.20;30.39
37710;BME280;60223;34.854;-92.408;2023-04-21T04:11:47;100283.79;;;27.40;30.39
37710;BME280;60223;34.854;-92.408;2023-04-21T04:14:15;100292.18;;;27.27;30.49
37710;BME280;60223;34.854;-92.408;2023-04-21T04:16:40;100260.77;;;27.04;30.58
37710;BME280;60223;34.854;-92.408;2023-04-21T04:19:05;100266.80;;;27.64;30.06
37710;BME280;60223;34.854;-92.408;2023-04-21T04:21:32;100260.90;;;27.27;30.57
37710;BME280;60223;34.854;-92.408;2023-04-21T04:23:57;100202.52;;;26.98;30.92
37710;BME280;60223;34.854;-92.408;2023-04-21T04:26:23;100225.68;;;26.78;31.29
37710;BME280;60223;34.854;-92.408;2023-04-21T04:28:49;100205.96;;;26.71;31.19
37710;BME280;60223;34.854;-92.408;2023-04-21T04:31:14;100230.22;;;26.83;31.02
37710;BME280;60223;34.854;-92.408;2023-04-21T04:33:40;100204.31;;;26.80;31.36
37710;BME280;60223;34.854;-92.408;2023-04-21T04:36:10;100234.24;;;26.33;31.42
37710;BME280;60223;34.854;-92.408;2023-04-21T04:38:31;100227.60;;;26.37;31.42
37710;BME280;60223;34.854;-92.408;2023-04-21T04:40:58;100245.71;;;27.74;30.12
37710;BME280;60223;34.854;-92.408;2023-04-21T04:43:21;100225.58;;;26.41;31.23
37710;BME280;60223;34.854;-92.408;2023-04-21T04:45:47;100229.77;;;26.54;31.14
37710;BME280;60223;34.854;-92.408;2023-04-21T04:48:11;100247.26;;;26.40;31.45
37710;BME280;60223;34.854;-92.408;2023-04-21T04:50:37;100250.53;;;26.42;31.32
37710;BME280;60223;34.854;-92.408;2023-04-21T04:53:00;100250.60;;;26.29;31.31
37710;BME280;60223;34.854;-92.408;2023-04-21T04:55:28;100256.18;;;26.51;30.98
37710;BME280;60223;34.854;-92.408;2023-04-21T04:57:53;100266.29;;;26.97;31.09
37710;BME280;60223;34.854;-92.408;2023-04-21T05:00:19;100279.87;;;26.77;31.01
37710;BME280;60223;34.854;-92.408;2023-04-21T05:02:51;100289.72;;;26.37;31.15
37710;BME280;60223;34.854;-92.408;2023-04-21T05:05:11;100296.35;;;26.50;30.91
37710;BME280;60223;34.854;-92.408;2023-04-21T05:07:37;100297.83;;;26.84;31.05
37710;BME280;60223;34.854;-92.408;2023-04-21T05:10:00;100309.54;;;26.40;30.95
37710;BME280;60223;34.854;-92.408;2023-04-21T05:12:27;100323.74;;;26.51;30.85
37710;BME280;60223;34.854;-92.408;2023-04-21T05:14:53;100339.92;;;26.50;30.81
37710;BME280;60223;34.854;-92.408;2023-04-21T05:17:19;100341.47;;;26.38;30.95
37710;BME280;60223;34.854;-92.408;2023-04-21T05:19:44;100349.15;;;26.49;30.76
37710;BME280;60223;34.854;-92.408;2023-04-21T05:22:09;100360.00;;;26.25;31.02
37710;BME280;60223;34.854;-92.408;2023-04-21T05:24:33;100371.32;;;26.70;31.05
37710;BME280;60223;34.854;-92.408;2023-04-21T05:27:01;100383.46;;;26.74;30.67
37710;BME280;60223;34.854;-92.408;2023-04-21T05:29:24;100392.62;;;26.35;30.86
37710;BME280;60223;34.854;-92.408;2023-04-21T05:31:53;100401.92;;;26.30;30.89
37710;BME280;60223;34.854;-92.408;2023-04-21T05:34:26;100390.13;;;26.72;30.92
37710;BME280;60223;34.854;-92.408;2023-04-21T05:36:44;100375.45;;;26.28;30.84
37710;BME280;60223;34.854;-92.408;2023-04-21T05:39:07;100381.03;;;26.38;30.69
37710;BME280;60223;34.854;-92.408;2023-04-21T05:41:31;100376.36;;;26.43;30.65
37710;BME280;60223;34.854;-92.408;2023-04-21T05:44:00;100377.50;;;26.61;30.70
37710;BME280;60223;34.854;-92.408;2023-04-21T05:46:23;100384.17;;;26.70;30.79
37710;BME280;60223;34.854;-92.408;2023-04-21T05:48:52;100392.25;;;26.78;30.68
37710;BME280;60223;34.854;-92.408;2023-04-21T05:51:17;100403.01;;;26.47;30.78
37710;BME280;60223;34.854;-92.408;2023-04-21T05:53:43;100414.60;;;26.44;30.81
37710;BME280;60223;34.854;-92.408;2023-04-21T05:56:08;100410.50;;;26.07;30.91
37710;BME280;60223;34.854;-92.408;2023-04-21T05:58:42;100414.55;;;26.24;30.94
37710;BME280;60223;34.854;-92.408;2023-04-21T06:00:59;100407.10;;;26.38;30.78
37710;BME280;60223;34.854;-92.408;2023-04-21T06:03:25;100399.65;;;26.09;30.85
37710;BME280;60223;34.854;-92.408;2023-04-21T06:05:58;100397.75;;;26.60;30.79
37710;BME280;60223;34.854;-92.408;2023-04-21T06:08:16;100390.96;;;25.94;30.90
37710;BME280;60223;34.854;-92.408;2023-04-21T06:10:41;100392.34;;;25.92;30.94
37710;BME280;60223;34.854;-92.408;2023-04-21T06:13:08;100386.37;;;26.04;30.83
37710;BME280;60223;34.854;-92.408;2023-04-21T06:15:33;100392.35;;;26.59;30.69
37710;BME280;60223;34.854;-92.408;2023-04-21T06:17:58;100409.86;;;26.26;30.80
37710;BME280;60223;34.854;-92.408;2023-04-21T06:20:24;100409.77;;;26.50;30.78
37710;BME280;60223;34.854;-92.408;2023-04-21T06:22:49;100408.06;;;25.98;30.86
37710;BME280;60223;34.854;-92.408;2023-04-21T06:25:15;100403.97;;;26.33;30.68
37710;BME280;60223;34.854;-92.408;2023-04-21T06:27:40;100394.44;;;26.08;30.95
37710;BME280;60223;34.854;-92.408;2023-04-21T06:30:11;100404.37;;;25.98;30.74
37710;BME280;60223;34.854;-92.408;2023-04-21T06:32:34;100406.08;;;25.80;30.93
37710;BME280;60223;34.854;-92.408;2023-04-21T06:34:57;100405.16;;;25.96;30.76
37710;BME280;60223;34.854;-92.408;2023-04-21T06:37:23;100390.82;;;26.14;30.84
37710;BME280;60223;34.854;-92.408;2023-04-21T06:39:48;100373.70;;;25.89;30.83
37710;BME280;60223;34.854;-92.408;2023-04-21T06:42:13;100373.96;;;26.04;30.64
37710;BME280;60223;34.854;-92.408;2023-04-21T06:44:40;100371.04;;;26.34;30.59
37710;BME280;60223;34.854;-92.408;2023-04-21T06:47:03;100381.66;;;26.45;30.44
37710;BME280;60223;34.854;-92.408;2023-04-21T06:49:29;100384.87;;;26.29;30.59
37710;BME280;60223;34.854;-92.408;2023-04-21T06:51:55;100391.03;;;26.45;30.42
37710;BME280;60223;34.854;-92.408;2023-04-21T06:54:22;100388.41;;;26.20;30.67
37710;BME280;60223;34.854;-92.408;2023-04-21T06:56:46;100393.53;;;26.16;30.41
37710;BME280;60223;34.854;-92.408;2023-04-21T06:59:13;100380.72;;;26.35;30.50
37710;BME280;60223;34.854;-92.408;2023-04-21T07:01:39;100382.57;;;26.36;30.70
37710;BME280;60223;34.854;-92.408;2023-04-21T07:04:04;100396.97;;;25.76;30.85
37710;BME280;60223;34.854;-92.408;2023-04-21T07:06:29;100394.17;;;26.37;30.68
37710;BME280;60223;34.854;-92.408;2023-04-21T07:08:55;100391.57;;;26.32;30.67
37710;BME280;60223;34.854;-92.408;2023-04-21T07:11:20;100380.93;;;26.18;30.79
37710;BME280;60223;34.854;-92.408;2023-04-21T07:13:46;100366.00;;;26.24;30.76
37710;BME280;60223;34.854;-92.408;2023-04-21T07:16:11;100342.52;;;25.74;30.79
37710;BME280;60223;34.854;-92.408;2023-04-21T07:18:40;100344.64;;;25.96;30.77
37710;BME280;60223;34.854;-92.408;2023-04-21T07:21:03;100352.25;;;26.34;30.60
37710;BME280;60223;34.854;-92.408;2023-04-21T07:23:28;100378.58;;;25.68;30.83
37710;BME280;60223;34.854;-92.408;2023-04-21T07:25:53;100389.96;;;25.86;30.57
37710;BME280;60223;34.854;-92.408;2023-04-21T07:28:19;100391.63;;;25.69;30.76
37710;BME280;60223;34.854;-92.408;2023-04-21T07:30:49;100375.68;;;25.94;30.78
37710;BME280;60223;34.854;-92.408;2023-04-21T07:33:07;100369.98;;;26.10;30.59
37710;BME280;60223;34.854;-92.408;2023-04-21T07:35:34;100360.03;;;26.54;30.35
37710;BME280;60223;34.854;-92.408;2023-04-21T07:37:59;100355.45;;;26.61;30.25
37710;BME280;60223;34.854;-92.408;2023-04-21T07:40:26;100354.92;;;26.65;30.16
37710;BME280;60223;34.854;-92.408;2023-04-21T07:42:52;100353.54;;;26.69;30.12
37710;BME280;60223;34.854;-92.408;2023-04-21T07:45:19;100354.56;;;26.63;29.90
37710;BME280;60223;34.854;-92.408;2023-04-21T07:47:43;100354.64;;;26.53;29.74
37710;BME280;60223;34.854;-92.408;2023-04-21T07:50:10;100360.08;;;26.29;30.32
37710;BME280;60223;34.854;-92.408;2023-04-21T07:52:34;100373.97;;;26.43;30.42
37710;BME280;60223;34.854;-92.408;2023-04-21T07:55:00;100385.70;;;26.29;30.53
37710;BME280;60223;34.854;-92.408;2023-04-21T07:57:26;100391.75;;;25.77;30.57
37710;BME280;60223;34.854;-92.408;2023-04-21T07:59:52;100401.79;;;25.80;30.58
37710;BME280;60223;34.854;-92.408;2023-04-21T08:02:17;100413.72;;;26.17;30.66
37710;BME280;60223;34.854;-92.408;2023-04-21T08:04:42;100425.77;;;26.16;30.62
37710;BME280;60223;34.854;-92.408;2023-04-21T08:07:08;100433.38;;;26.19;30.56
37710;BME280;60223;34.854;-92.408;2023-04-21T08:09:33;100445.37;;;26.06;30.69
37710;BME280;60223;34.854;-92.408;2023-04-21T08:12:00;100436.92;;;25.61;30.68
37710;BME280;60223;34.854;-92.408;2023-04-21T08:14:32;100438.72;;;26.28;30.46
37710;BME280;60223;34.854;-92.408;2023-04-21T08:16:51;100437.03;;;25.91;30.58
37710;BME280;60223;34.854;-92.408;2023-04-21T08:19:21;100450.75;;;26.00;30.44
37710;BME280;60223;34.854;-92.408;2023-04-21T08:21:42;100474.12;;;26.22;30.46
37710;BME280;60223;34.854;-92.408;2023-04-21T08:24:08;100480.62;;;25.88;30.54
37710;BME280;60223;34.854;-92.408;2023-04-21T08:26:34;100481.39;;;25.81;30.36
37710;BME280;60223;34.854;-92.408;2023-04-21T08:28:59;100480.97;;;26.51;30.13
37710;BME280;60223;34.854;-92.408;2023-04-21T08:31:25;100492.72;;;26.89;29.68
37710;BME280;60223;34.854;-92.408;2023-04-21T08:33:50;100502.77;;;26.98;29.57
37710;BME280;60223;34.854;-92.408;2023-04-21T08:36:16;100494.57;;;26.52;29.52
37710;BME280;60223;34.854;-92.408;2023-04-21T08:38:41;100515.17;;;26.87;29.63
37710;BME280;60223;34.854;-92.408;2023-04-21T08:41:16;100528.45;;;26.89;29.59
37710;BME280;60223;34.854;-92.408;2023-04-21T08:43:31;100546.87;;;26.85;29.60
37710;BME280;60223;34.854;-92.408;2023-04-21T08:45:58;100569.05;;;26.77;29.45
37710;BME280;60223;34.854;-92.408;2023-04-21T08:48:24;100575.13;;;26.95;29.48
37710;BME280;60223;34.854;-92.408;2023-04-21T08:50:51;100565.04;;;27.01;29.41
37710;BME280;60223;34.854;-92.408;2023-04-21T08:53:15;100555.41;;;26.70;29.71
37710;BME280;60223;34.854;-92.408;2023-04-21T08:55:41;100579.34;;;26.51;29.93
37710;BME280;60223;34.854;-92.408;2023-04-21T08:58:07;100600.49;;;26.36;29.81
37710;BME280;60223;34.854;-92.408;2023-04-21T09:00:32;100603.00;;;26.56;29.85
37710;BME280;60223;34.854;-92.408;2023-04-21T09:02:58;100555.42;;;26.29;29.56
37710;BME280;60223;34.854;-92.408;2023-04-21T09:05:25;100552.65;;;26.46;29.65
37710;BME280;60223;34.854;-92.408;2023-04-21T09:08:06;100568.82;;;26.13;29.73
37710;BME280;60223;34.854;-92.408;2023-04-21T09:10:14;100563.75;;;26.47;29.87
37710;BME280;60223;34.854;-92.408;2023-04-21T09:12:41;100569.11;;;26.50;29.80
37710;BME280;60223;34.854;-92.408;2023-04-21T09:15:15;100549.01;;;26.43;29.89
37710;BME280;60223;34.854;-92.408;2023-04-21T09:17:33;100558.28;;;26.42;29.88
37710;BME280;60223;34.854;-92.408;2023-04-21T09:19:54;100571.44;;;26.47;29.74
37710;BME280;60223;34.854;-92.408;2023-04-21T09:22:25;100576.93;;;26.41;29.85
37710;BME280;60223;34.854;-92.408;2023-04-21T09:24:56;100585.86;;;26.62;29.55
37710;BME280;60223;34.854;-92.408;2023-04-21T09:27:14;100582.42;;;26.03;29.66
37710;BME280;60223;34.854;-92.408;2023-04-21T09:29:39;100577.70;;;25.87;29.79
37710;BME280;60223;34.854;-92.408;2023-04-21T09:32:05;100579.00;;;25.92;29.75
37710;BME280;60223;34.854;-92.408;2023-04-21T09:34:29;100578.34;;;26.35;29.76
37710;BME280;60223;34.854;-92.408;2023-04-21T09:37:00;100589.19;;;26.47;29.65
37710;BME280;60223;34.854;-92.408;2023-04-21T09:39:25;100602.07;;;26.04;29.56
37710;BME280;60223;34.854;-92.408;2023-04-21T09:41:47;100611.10;;;26.07;29.51
37710;BME280;60223;34.854;-92.408;2023-04-21T09:44:12;100611.96;;;26.38;29.68
37710;BME280;60223;34.854;-92.408;2023-04-21T09:46:37;100604.57;;;25.94;29.91
37710;BME280;60223;34.854;-92.408;2023-04-21T09:49:04;100589.47;;;25.98;29.84
37710;BME280;60223;34.854;-92.408;2023-04-21T09:51:30;100576.05;;;26.14;29.94
37710;BME280;60223;34.854;-92.408;2023-04-21T09:53:57;100562.33;;;26.10;29.95
37710;BME280;60223;34.854;-92.408;2023-04-21T09:56:24;100561.31;;;25.78;30.02
37710;BME280;60223;34.854;-92.408;2023-04-21T09:58:51;100549.04;;;25.62;30.14
37710;BME280;60223;34.854;-92.408;2023-04-21T10:01:13;100522.18;;;25.79;30.20
37710;BME280;60223;34.854;-92.408;2023-04-21T10:03:38;100484.82;;;25.86;30.09
37710;BME280;60223;34.854;-92.408;2023-04-21T10:06:03;100454.08;;;25.84;30.09
37710;BME280;60223;34.854;-92.408;2023-04-21T10:08:29;100441.35;;;25.79;30.10
37710;BME280;60223;34.854;-92.408;2023-04-21T10:10:54;100433.78;;;25.47;30.14
37710;BME280;60223;34.854;-92.408;2023-04-21T10:13:22;100438.20;;;25.32;30.04
37710;BME280;60223;34.854;-92.408;2023-04-21T10:15:44;100445.94;;;25.63;30.21
37710;BME280;60223;34.854;-92.408;2023-04-21T10:18:15;100512.90;;;25.83;29.98
37710;BME280;60223;34.854;-92.408;2023-04-21T10:23:02;100531.88;;;25.72;30.04
37710;BME280;60223;34.854;-92.408;2023-04-21T10:25:32;100534.64;;;25.82;29.91
37710;BME280;60223;34.854;-92.408;2023-04-21T10:27:53;100528.37;;;25.80;29.95
37710;BME280;60223;34.854;-92.408;2023-04-21T10:30:22;100532.26;;;26.14;30.06
37710;BME280;60223;34.854;-92.408;2023-04-21T10:32:46;100527.55;;;25.81;29.92
37710;BME280;60223;34.854;-92.408;2023-04-21T10:35:09;100513.95;;;25.78;29.93
37710;BME280;60223;34.854;-92.408;2023-04-21T10:37:37;100500.81;;;25.80;29.86
37710;BME280;60223;34.854;-92.408;2023-04-21T10:40:32;100488.49;;;26.08;29.79
37710;BME280;60223;34.854;-92.408;2023-04-21T10:42:35;100481.21;;;25.99;29.65
37710;BME280;60223;34.854;-92.408;2023-04-21T10:45:01;100475.83;;;25.93;29.67
37710;BME280;60223;34.854;-92.408;2023-04-21T10:47:24;100479.05;;;25.88;29.67
37710;BME280;60223;34.854;-92.408;2023-04-21T10:49:45;100481.52;;;25.75;29.79
37710;BME280;60223;34.854;-92.408;2023-04-21T10:52:09;100484.39;;;25.70;29.82
37710;BME280;60223;34.854;-92.408;2023-04-21T10:57:05;100499.04;;;25.39;30.13
37710;BME280;60223;34.854;-92.408;2023-04-21T10:59:27;100507.67;;;25.56;29.88
37710;BME280;60223;34.854;-92.408;2023-04-21T11:01:53;100518.14;;;25.56;29.86
37710;BME280;60223;34.854;-92.408;2023-04-21T11:04:19;100520.99;;;25.76;29.66
37710;BME280;60223;34.854;-92.408;2023-04-21T11:09:18;100509.79;;;25.52;29.85
37710;BME280;60223;34.854;-92.408;2023-04-21T11:11:41;100516.19;;;25.47;29.92
37710;BME280;60223;34.854;-92.408;2023-04-21T11:14:03;100519.76;;;25.58;29.74
37710;BME280;60223;34.854;-92.408;2023-04-21T11:16:25;100519.49;;;25.38;29.85
37710;BME280;60223;34.854;-92.408;2023-04-21T11:18:52;100511.62;;;25.60;29.98
37710;BME280;60223;34.854;-92.408;2023-04-21T11:21:17;100512.47;;;25.47;29.81
37710;BME280;60223;34.854;-92.408;2023-04-21T11:23:51;100507.13;;;25.34;29.71
37710;BME280;60223;34.854;-92.408;2023-04-21T11:26:09;100510.67;;;25.30;30.03
37710;BME280;60223;34.854;-92.408;2023-04-21T11:28:40;100518.64;;;25.33;29.94
37710;BME280;60223;34.854;-92.408;2023-04-21T11:31:00;100518.56;;;25.47;29.79
37710;BME280;60223;34.854;-92.408;2023-04-21T11:33:30;100510.49;;;25.45;29.79
37710;BME280;60223;34.854;-92.408;2023-04-21T11:35:52;100509.73;;;25.43;29.75
37710;BME280;60223;34.854;-92.408;2023-04-21T11:38:17;100508.00;;;25.69;29.74
37710;BME280;60223;34.854;-92.408;2023-04-21T11:40:48;100515.31;;;25.29;29.85
37710;BME280;60223;34.854;-92.408;2023-04-21T11:43:16;100516.89;;;25.45;29.92
37710;BME280;60223;34.854;-92.408;2023-04-21T11:45:34;100518.41;;;25.42;29.71
37710;BME280;60223;34.854;-92.408;2023-04-21T11:48:13;100520.56;;;25.26;29.75
37710;BME280;60223;34.854;-92.408;2023-04-21T11:50:33;100515.14;;;25.41;29.91
37710;BME280;60223;34.854;-92.408;2023-04-21T11:52:55;100515.61;;;25.42;29.55
37710;BME280;60223;34.854;-92.408;2023-04-21T11:55:24;100522.25;;;25.28;29.74
37710;BME280;60223;34.854;-92.408;2023-04-21T11:57:42;100522.30;;;25.52;29.74
37710;BME280;60223;34.854;-92.408;2023-04-21T12:00:09;100522.40;;;25.23;29.77
37710;BME280;60223;34.854;-92.408;2023-04-21T12:02:34;100525.54;;;25.15;29.82
37710;BME280;60223;34.854;-92.408;2023-04-21T12:05:05;100529.21;;;25.30;29.63
37710;BME280;60223;34.854;-92.408;2023-04-21T12:07:25;100537.39;;;25.61;29.28
37710;BME280;60223;34.854;-92.408;2023-04-21T12:09:53;100537.33;;;25.24;29.91
37710;BME280;60223;34.854;-92.408;2023-04-21T12:12:21;100532.86;;;25.36;29.72
37710;BME280;60223;34.854;-92.408;2023-04-21T12:14:50;100524.00;;;25.46;29.63
37710;BME280;60223;34.854;-92.408;2023-04-21T12:19:38;100542.33;;;25.14;29.70
37710;BME280;60223;34.854;-92.408;2023-04-21T12:22:12;100554.09;;;25.12;29.73
37710;BME280;60223;34.854;-92.408;2023-04-21T12:24:23;100561.37;;;26.78;27.93
37710;BME280;60223;34.854;-92.408;2023-04-21T12:26:47;100563.78;;;26.76;27.67
37710;BME280;60223;34.854;-92.408;2023-04-21T12:29:14;100562.94;;;25.69;28.83
37710;BME280;60223;34.854;-92.408;2023-04-21T12:31:40;100572.25;;;25.63;29.35
37710;BME280;60223;34.854;-92.408;2023-04-21T12:34:14;100577.21;;;26.33;28.43
37710;BME280;60223;34.854;-92.408;2023-04-21T12:36:33;100564.73;;;25.69;28.95
37710;BME280;60223;34.854;-92.408;2023-04-21T12:38:56;100572.97;;;25.42;29.26
37710;BME280;60223;34.854;-92.408;2023-04-21T12:41:23;100574.31;;;25.43;29.30
37710;BME280;60223;34.854;-92.408;2023-04-21T12:43:47;100567.79;;;25.21;29.51
37710;BME280;60223;34.854;-92.408;2023-04-21T12:46:15;100565.20;;;25.45;29.49
37710;BME280;60223;34.854;-92.408;2023-04-21T12:48:40;100565.29;;;25.18;29.53